sensor_id;sensor_type;location;lat;lon;timestamp;P1;durP1;ratioP1;P2;durP2;ratioP2
43216;SDS011;71549;42.686;23.300;2023-10-19T00:00:55;4.90;;;4.50;;
43216;SDS011;71549;42.686;23.300;2023-10-19T00:03:00;5.13;;;4.72;;
43216;SDS011;71549;42.686;23.300;2023-10-19T00:07:03;5.43;;;4.93;;
43216;SDS011;71549;42.686;23.300;2023-10-19T00:09:08;5.50;;;5.00;;
43216;SDS011;71549;42.686;23.300;2023-10-19T00:11:11;5.25;;;4.80;;
43216;SDS011;71549;42.686;23.300;2023-10-19T00:13:21;4.90;;;4.50;;
43216;SDS011;71549;42.686;23.300;2023-10-19T00:15:22;5.40;;;4.90;;
43216;SDS011;71549;42.686;23.300;2023-10-19T00:17:25;5.32;;;4.93;;
43216;SDS011;71549;42.686;23.300;2023-10-19T00:19:27;5.65;;;5.15;;
43216;SDS011;71549;42.686;23.300;2023-10-19T00:21:29;5.47;;;5.07;;
43216;SDS011;71549;42.686;23.300;2023-10-19T00:23:31;5.15;;;4.75;;
43216;SDS011;71549;42.686;23.300;2023-10-19T00:25:32;5.60;;;5.13;;
43216;SDS011;71549;42.686;23.300;2023-10-19T00:27:34;5.75;;;5.25;;
43216;SDS011;71549;42.686;23.300;2023-10-19T00:29:35;5.45;;;4.97;;
43216;SDS011;71549;42.686;23.300;2023-10-19T00:31:40;5.30;;;4.90;;
43216;SDS011;71549;42.686;23.300;2023-10-19T00:33:41;5.50;;;5.03;;
43216;SDS011;71549;42.686;23.300;2023-10-19T00:35:42;5.22;;;4.82;;
43216;SDS011;71549;42.686;23.300;2023-10-19T00:37:47;4.88;;;4.47;;
43216;SDS011;71549;42.686;23.300;2023-10-19T00:39:48;5.55;;;5.03;;
43216;SDS011;71549;42.686;23.300;2023-10-19T00:41:54;5.43;;;4.93;;
43216;SDS011;71549;42.686;23.300;2023-10-19T00:43:58;5.50;;;5.10;;
43216;SDS011;71549;42.686;23.300;2023-10-19T00:46:05;5.47;;;4.97;;
43216;SDS011;71549;42.686;23.300;2023-10-19T00:48:18;5.10;;;4.70;;
43216;SDS011;71549;42.686;23.300;2023-10-19T00:50:23;5.55;;;5.05;;
43216;SDS011;71549;42.686;23.300;2023-10-19T00:52:27;4.82;;;4.43;;
43216;SDS011;71549;42.686;23.300;2023-10-19T00:54:32;5.50;;;5.00;;
43216;SDS011;71549;42.686;23.300;2023-10-19T00:56:35;5.50;;;5.00;;
43216;SDS011;71549;42.686;23.300;2023-10-19T00:58:37;5.55;;;5.05;;
43216;SDS011;71549;42.686;23.300;2023-10-19T01:00:41;5.57;;;5.10;;
43216;SDS011;71549;42.686;23.300;2023-10-19T01:02:43;5.43;;;4.93;;
43216;SDS011;71549;42.686;23.300;2023-10-19T01:04:49;4.82;;;4.45;;
43216;SDS011;71549;42.686;23.300;2023-10-19T01:06:55;5.65;;;5.15;;
43216;SDS011;71549;42.686;23.300;2023-10-19T01:09:07;5.65;;;5.20;;
43216;SDS011;71549;42.686;23.300;2023-10-19T01:11:11;5.85;;;5.35;;
43216;SDS011;71549;42.686;23.300;2023-10-19T01:13:15;5.28;;;4.88;;
43216;SDS011;71549;42.686;23.300;2023-10-19T01:15:17;5.40;;;5.00;;
43216;SDS011;71549;42.686;23.300;2023-10-19T01:17:27;5.13;;;4.72;;
43216;SDS011;71549;42.686;23.300;2023-10-19T01:19:31;5.50;;;5.00;;
43216;SDS011;71549;42.686;23.300;2023-10-19T01:21:32;5.50;;;5.00;;
43216;SDS011;71549;42.686;23.300;2023-10-19T01:23:38;5.18;;;4.78;;
43216;SDS011;71549;42.686;23.300;2023-10-19T01:25:46;5.43;;;5.03;;
43216;SDS011;71549;42.686;23.300;2023-10-19T01:27:54;5.28;;;4.78;;
43216;SDS011;71549;42.686;23.300;2023-10-19T01:29:57;4.90;;;4.50;;
43216;SDS011;71549;42.686;23.300;2023-10-19T01:32:02;5.20;;;4.78;;
43216;SDS011;71549;42.686;23.300;2023-10-19T01:34:08;5.13;;;4.72;;
43216;SDS011;71549;42.686;23.300;2023-10-19T01:36:11;5.20;;;4.72;;
43216;SDS011;71549;42.686;23.300;2023-10-19T01:38:14;5.15;;;4.75;;
43216;SDS011;71549;42.686;23.300;2023-10-19T01:40:15;5.80;;;5.30;;
43216;SDS011;71549;42.686;23.300;2023-10-19T01:42:20;5.47;;;5.07;;
43216;SDS011;71549;42.686;23.300;2023-10-19T01:44:21;5.32;;;4.82;;
43216;SDS011;71549;42.686;23.300;2023-10-19T01:46:22;5.65;;;5.20;;
43216;SDS011;71549;42.686;23.300;2023-10-19T01:48:24;4.80;;;4.28;;
43216;SDS011;71549;42.686;23.300;2023-10-19T01:50:43;5.63;;;5.20;;
43216;SDS011;71549;42.686;23.300;2023-10-19T01:52:44;4.88;;;4.47;;
43216;SDS011;71549;42.686;23.300;2023-10-19T01:54:44;5.30;;;4.90;;
43216;SDS011;71549;42.686;23.300;2023-10-19T01:56:45;4.97;;;4.57;;
43216;SDS011;71549;42.686;23.300;2023-10-19T01:58:46;5.45;;;5.05;;
43216;SDS011;71549;42.686;23.300;2023-10-19T02:00:46;5.32;;;4.82;;
43216;SDS011;71549;42.686;23.300;2023-10-19T02:02:47;5.50;;;5.10;;
43216;SDS011;71549;42.686;23.300;2023-10-19T02:04:47;5.63;;;5.22;;
43216;SDS011;71549;42.686;23.300;2023-10-19T02:06:51;5.70;;;5.20;;
43216;SDS011;71549;42.686;23.300;2023-10-19T02:09:07;5.78;;;5.28;;
43216;SDS011;71549;42.686;23.300;2023-10-19T02:11:10;5.32;;;4.82;;
43216;SDS011;71549;42.686;23.300;2023-10-19T02:13:18;5.53;;;5.03;;
43216;SDS011;71549;42.686;23.300;2023-10-19T02:15:19;5.28;;;4.88;;
43216;SDS011;71549;42.686;23.300;2023-10-19T02:17:22;5.40;;;5.00;;
43216;SDS011;71549;42.686;23.300;2023-10-19T02:19:24;5.47;;;5.07;;
43216;SDS011;71549;42.686;23.300;2023-10-19T02:21:26;5.30;;;4.80;;
43216;SDS011;71549;42.686;23.300;2023-10-19T02:23:30;5.03;;;4.65;;
43216;SDS011;71549;42.686;23.300;2023-10-19T02:25:32;5.68;;;5.22;;
43216;SDS011;71549;42.686;23.300;2023-10-19T02:27:36;4.78;;;4.38;;
43216;SDS011;71549;42.686;23.300;2023-10-19T02:29:36;5.97;;;5.47;;
43216;SDS011;71549;42.686;23.300;2023-10-19T02:31:41;5.40;;;4.90;;
43216;SDS011;71549;42.686;23.300;2023-10-19T02:33:42;5.55;;;5.10;;
43216;SDS011;71549;42.686;23.300;2023-10-19T02:36:13;5.25;;;4.82;;
43216;SDS011;71549;42.686;23.300;2023-10-19T02:38:16;5.20;;;4.80;;
43216;SDS011;71549;42.686;23.300;2023-10-19T02:40:16;5.63;;;5.20;;
43216;SDS011;71549;42.686;23.300;2023-10-19T02:42:20;5.10;;;4.70;;
43216;SDS011;71549;42.686;23.300;2023-10-19T02:44:22;4.73;;;4.33;;
43216;SDS011;71549;42.686;23.300;2023-10-19T02:46:23;5.13;;;4.72;;
43216;SDS011;71549;42.686;23.300;2023-10-19T02:48:24;5.07;;;4.68;;
43216;SDS011;71549;42.686;23.300;2023-10-19T02:50:24;4.75;;;4.35;;
43216;SDS011;71549;42.686;23.300;2023-10-19T02:52:26;5.35;;;4.88;;
43216;SDS011;71549;42.686;23.300;2023-10-19T02:54:27;5.28;;;4.78;;
43216;SDS011;71549;42.686;23.300;2023-10-19T02:56:32;5.22;;;4.82;;
43216;SDS011;71549;42.686;23.300;2023-10-19T02:58:36;5.07;;;4.68;;
43216;SDS011;71549;42.686;23.300;2023-10-19T03:00:37;5.65;;;5.15;;
43216;SDS011;71549;42.686;23.300;2023-10-19T03:02:39;5.45;;;4.95;;
43216;SDS011;71549;42.686;23.300;2023-10-19T03:04:40;5.03;;;4.47;;
43216;SDS011;71549;42.686;23.300;2023-10-19T03:06:42;5.10;;;4.57;;
43216;SDS011;71549;42.686;23.300;2023-10-19T03:08:43;5.57;;;5.18;;
43216;SDS011;71549;42.686;23.300;2023-10-19T03:10:46;5.03;;;4.55;;
43216;SDS011;71549;42.686;23.300;2023-10-19T03:12:46;5.18;;;4.78;;
43216;SDS011;71549;42.686;23.300;2023-10-19T03:14:47;4.97;;;4.57;;
43216;SDS011;71549;42.686;23.300;2023-10-19T03:16:48;4.70;;;4.35;;
43216;SDS011;71549;42.686;23.300;2023-10-19T03:18:49;4.68;;;4.28;;
43216;SDS011;71549;42.686;23.300;2023-10-19T03:20:50;4.80;;;4.40;;
43216;SDS011;71549;42.686;23.300;2023-10-19T03:22:51;5.05;;;4.65;;
43216;SDS011;71549;42.686;23.300;2023-10-19T03:24:52;5.07;;;4.53;;
43216;SDS011;71549;42.686;23.300;2023-10-19T03:27:11;5.10;;;4.70;;
43216;SDS011;71549;42.686;23.300;2023-10-19T03:29:18;4.60;;;4.30;;
43216;SDS011;71549;42.686;23.300;2023-10-19T03:31:31;5.88;;;5.28;;
43216;SDS011;71549;42.686;23.300;2023-10-19T03:33:33;5.07;;;4.68;;
43216;SDS011;71549;42.686;23.300;2023-10-19T03:35:36;4.78;;;4.38;;
43216;SDS011;71549;42.686;23.300;2023-10-19T03:37:43;5.05;;;4.65;;
43216;SDS011;71549;42.686;23.300;2023-10-19T03:39:48;4.38;;;4.07;;
43216;SDS011;71549;42.686;23.300;2023-10-19T03:41:48;4.68;;;4.32;;
43216;SDS011;71549;42.686;23.300;2023-10-19T03:43:52;5.37;;;4.97;;
43216;SDS011;71549;42.686;23.300;2023-10-19T03:45:54;5.88;;;5.38;;
43216;SDS011;71549;42.686;23.300;2023-10-19T03:47:55;5.30;;;4.85;;
43216;SDS011;71549;42.686;23.300;2023-10-19T03:49:56;5.20;;;4.80;;
43216;SDS011;71549;42.686;23.300;2023-10-19T03:51:56;5.32;;;4.93;;
43216;SDS011;71549;42.686;23.300;2023-10-19T03:54:09;5.85;;;5.38;;
43216;SDS011;71549;42.686;23.300;2023-10-19T03:56:21;5.05;;;4.68;;
43216;SDS011;71549;42.686;23.300;2023-10-19T03:58:22;4.82;;;4.43;;
43216;SDS011;71549;42.686;23.300;2023-10-19T04:00:23;5.95;;;4.57;;
43216;SDS011;71549;42.686;23.300;2023-10-19T04:02:31;5.22;;;4.82;;
43216;SDS011;71549;42.686;23.300;2023-10-19T04:04:39;6.13;;;4.85;;
43216;SDS011;71549;42.686;23.300;2023-10-19T04:06:43;5.40;;;5.00;;
43216;SDS011;71549;42.686;23.300;2023-10-19T04:08:47;9.02;;;4.75;;
43216;SDS011;71549;42.686;23.300;2023-10-19T04:10:50;4.97;;;4.57;;
43216;SDS011;71549;42.686;23.300;2023-10-19T04:13:19;5.05;;;4.65;;
43216;SDS011;71549;42.686;23.300;2023-10-19T04:15:19;5.00;;;4.60;;
43216;SDS011;71549;42.686;23.300;2023-10-19T04:17:20;4.93;;;4.53;;
43216;SDS011;71549;42.686;23.300;2023-10-19T04:19:23;5.28;;;4.88;;
43216;SDS011;71549;42.686;23.300;2023-10-19T04:21:24;5.30;;;4.82;;
43216;SDS011;71549;42.686;23.300;2023-10-19T04:23:24;5.97;;;5.40;;
43216;SDS011;71549;42.686;23.300;2023-10-19T04:25:27;5.38;;;4.93;;
43216;SDS011;71549;42.686;23.300;2023-10-19T04:27:29;5.65;;;5.15;;
43216;SDS011;71549;42.686;23.300;2023-10-19T04:29:32;5.38;;;4.88;;
43216;SDS011;71549;42.686;23.300;2023-10-19T04:31:32;4.93;;;4.50;;
43216;SDS011;71549;42.686;23.300;2023-10-19T04:33:33;5.00;;;4.60;;
43216;SDS011;71549;42.686;23.300;2023-10-19T04:35:36;5.05;;;4.65;;
43216;SDS011;71549;42.686;23.300;2023-10-19T04:37:37;5.00;;;4.60;;
43216;SDS011;71549;42.686;23.300;2023-10-19T04:39:42;5.13;;;4.72;;
43216;SDS011;71549;42.686;23.300;2023-10-19T04:41:42;5.50;;;5.05;;
43216;SDS011;71549;42.686;23.300;2023-10-19T04:43:44;5.78;;;5.38;;
43216;SDS011;71549;42.686;23.300;2023-10-19T04:45:50;5.07;;;4.68;;
43216;SDS011;71549;42.686;23.300;2023-10-19T04:47:50;5.22;;;4.82;;
43216;SDS011;71549;42.686;23.300;2023-10-19T04:49:55;5.65;;;5.25;;
43216;SDS011;71549;42.686;23.300;2023-10-19T04:51:55;5.25;;;4.85;;
43216;SDS011;71549;42.686;23.300;2023-10-19T04:53:56;5.65;;;5.22;;
43216;SDS011;71549;42.686;23.300;2023-10-19T04:55:56;5.25;;;4.85;;
43216;SDS011;71549;42.686;23.300;2023-10-19T04:57:56;4.97;;;4.57;;
43216;SDS011;71549;42.686;23.300;2023-10-19T04:59:57;5.45;;;4.93;;
43216;SDS011;71549;42.686;23.300;2023-10-19T05:01:57;5.47;;;4.97;;
43216;SDS011;71549;42.686;23.300;2023-10-19T05:03:58;6.32;;;5.40;;
43216;SDS011;71549;42.686;23.300;2023-10-19T05:06:01;5.07;;;4.68;;
43216;SDS011;71549;42.686;23.300;2023-10-19T05:08:02;5.10;;;4.70;;
43216;SDS011;71549;42.686;23.300;2023-10-19T05:10:02;5.13;;;4.72;;
43216;SDS011;71549;42.686;23.300;2023-10-19T05:12:06;5.70;;;4.90;;
43216;SDS011;71549;42.686;23.300;2023-10-19T05:14:13;5.40;;;4.90;;
43216;SDS011;71549;42.686;23.300;2023-10-19T05:16:14;5.25;;;4.85;;
43216;SDS011;71549;42.686;23.300;2023-10-19T05:18:15;6.28;;;5.78;;
43216;SDS011;71549;42.686;23.300;2023-10-19T05:20:16;5.07;;;4.57;;
43216;SDS011;71549;42.686;23.300;2023-10-19T05:22:16;5.60;;;5.10;;
43216;SDS011;71549;42.686;23.300;2023-10-19T05:24:17;5.53;;;5.13;;
43216;SDS011;71549;42.686;23.300;2023-10-19T05:26:18;5.80;;;5.30;;
43216;SDS011;71549;42.686;23.300;2023-10-19T05:28:21;5.85;;;5.20;;
43216;SDS011;71549;42.686;23.300;2023-10-19T05:30:24;5.97;;;5.47;;
43216;SDS011;71549;42.686;23.300;2023-10-19T05:32:24;5.35;;;4.90;;
43216;SDS011;71549;42.686;23.300;2023-10-19T05:34:24;5.28;;;4.88;;
43216;SDS011;71549;42.686;23.300;2023-10-19T05:36:29;5.60;;;5.10;;
43216;SDS011;71549;42.686;23.300;2023-10-19T05:38:30;5.90;;;5.25;;
43216;SDS011;71549;42.686;23.300;2023-10-19T05:40:32;5.88;;;5.38;;
43216;SDS011;71549;42.686;23.300;2023-10-19T05:42:33;6.07;;;5.57;;
43216;SDS011;71549;42.686;23.300;2023-10-19T05:44:34;6.10;;;5.60;;
43216;SDS011;71549;42.686;23.300;2023-10-19T05:46:36;4.97;;;4.53;;
43216;SDS011;71549;42.686;23.300;2023-10-19T05:48:38;5.82;;;5.32;;
43216;SDS011;71549;42.686;23.300;2023-10-19T05:50:39;5.80;;;4.82;;
43216;SDS011;71549;42.686;23.300;2023-10-19T05:52:41;5.82;;;5.32;;
43216;SDS011;71549;42.686;23.300;2023-10-19T05:54:42;5.30;;;4.90;;
43216;SDS011;71549;42.686;23.300;2023-10-19T05:56:43;7.40;;;5.15;;
43216;SDS011;71549;42.686;23.300;2023-10-19T05:58:43;5.88;;;5.38;;
43216;SDS011;71549;42.686;23.300;2023-10-19T06:00:45;6.18;;;5.63;;
43216;SDS011;71549;42.686;23.300;2023-10-19T06:02:47;5.80;;;5.30;;
43216;SDS011;71549;42.686;23.300;2023-10-19T06:04:51;6.20;;;5.60;;
43216;SDS011;71549;42.686;23.300;2023-10-19T06:06:53;5.75;;;5.25;;
43216;SDS011;71549;42.686;23.300;2023-10-19T06:08:53;7.72;;;5.63;;
43216;SDS011;71549;42.686;23.300;2023-10-19T06:10:54;6.00;;;5.50;;
43216;SDS011;71549;42.686;23.300;2023-10-19T06:12:55;7.55;;;6.65;;
43216;SDS011;71549;42.686;23.300;2023-10-19T06:14:56;5.50;;;5.00;;
43216;SDS011;71549;42.686;23.300;2023-10-19T06:16:56;6.32;;;5.60;;
43216;SDS011;71549;42.686;23.300;2023-10-19T06:18:56;7.05;;;5.40;;
43216;SDS011;71549;42.686;23.300;2023-10-19T06:20:59;7.35;;;6.07;;
43216;SDS011;71549;42.686;23.300;2023-10-19T06:22:59;7.80;;;5.97;;
43216;SDS011;71549;42.686;23.300;2023-10-19T06:25:04;6.30;;;5.75;;
43216;SDS011;71549;42.686;23.300;2023-10-19T06:27:05;5.97;;;5.47;;
43216;SDS011;71549;42.686;23.300;2023-10-19T06:29:06;5.93;;;5.43;;
43216;SDS011;71549;42.686;23.300;2023-10-19T06:31:06;5.78;;;5.20;;
43216;SDS011;71549;42.686;23.300;2023-10-19T06:33:07;6.50;;;5.97;;
43216;SDS011;71549;42.686;23.300;2023-10-19T06:35:07;6.50;;;5.90;;
43216;SDS011;71549;42.686;23.300;2023-10-19T06:37:10;6.38;;;5.78;;
43216;SDS011;71549;42.686;23.300;2023-10-19T06:39:12;5.97;;;5.40;;
43216;SDS011;71549;42.686;23.300;2023-10-19T06:41:13;6.20;;;5.68;;
43216;SDS011;71549;42.686;23.300;2023-10-19T06:43:15;6.90;;;5.78;;
43216;SDS011;71549;42.686;23.300;2023-10-19T06:45:16;6.68;;;6.07;;
43216;SDS011;71549;42.686;23.300;2023-10-19T06:49:20;5.97;;;5.47;;
43216;SDS011;71549;42.686;23.300;2023-10-19T06:51:20;7.13;;;6.43;;
43216;SDS011;71549;42.686;23.300;2023-10-19T06:53:22;6.75;;;6.15;;
43216;SDS011;71549;42.686;23.300;2023-10-19T06:55:22;6.93;;;6.13;;
43216;SDS011;71549;42.686;23.300;2023-10-19T06:57:23;6.85;;;6.22;;
43216;SDS011;71549;42.686;23.300;2023-10-19T06:59:23;6.50;;;5.85;;
43216;SDS011;71549;42.686;23.300;2023-10-19T07:01:24;6.57;;;6.00;;
43216;SDS011;71549;42.686;23.300;2023-10-19T07:03:29;6.53;;;5.93;;
43216;SDS011;71549;42.686;23.300;2023-10-19T07:05:30;6.35;;;5.85;;
43216;SDS011;71549;42.686;23.300;2023-10-19T07:07:31;7.07;;;6.47;;
43216;SDS011;71549;42.686;23.300;2023-10-19T07:09:31;6.60;;;6.00;;
43216;SDS011;71549;42.686;23.300;2023-10-19T07:11:33;6.70;;;6.05;;
43216;SDS011;71549;42.686;23.300;2023-10-19T07:13:33;7.00;;;6.28;;
43216;SDS011;71549;42.686;23.300;2023-10-19T07:15:34;7.38;;;6.68;;
43216;SDS011;71549;42.686;23.300;2023-10-19T07:17:35;7.03;;;6.43;;
43216;SDS011;71549;42.686;23.300;2023-10-19T07:19:35;6.68;;;6.07;;
43216;SDS011;71549;42.686;23.300;2023-10-19T07:21:38;6.68;;;5.82;;
43216;SDS011;71549;42.686;23.300;2023-10-19T07:23:44;6.53;;;5.97;;
43216;SDS011;71549;42.686;23.300;2023-10-19T07:25:46;7.68;;;6.03;;
43216;SDS011;71549;42.686;23.300;2023-10-19T07:27:54;7.07;;;6.38;;
43216;SDS011;71549;42.686;23.300;2023-10-19T07:29:55;6.53;;;5.88;;
43216;SDS011;71549;42.686;23.300;2023-10-19T07:31:57;6.35;;;5.78;;
43216;SDS011;71549;42.686;23.300;2023-10-19T07:33:58;7.07;;;6.13;;
43216;SDS011;71549;42.686;23.300;2023-10-19T07:35:59;7.03;;;6.32;;
43216;SDS011;71549;42.686;23.300;2023-10-19T07:38:07;6.65;;;6.13;;
43216;SDS011;71549;42.686;23.300;2023-10-19T07:40:07;6.47;;;5.88;;
43216;SDS011;71549;42.686;23.300;2023-10-19T07:42:14;7.00;;;6.40;;
43216;SDS011;71549;42.686;23.300;2023-10-19T07:44:15;7.28;;;6.57;;
43216;SDS011;71549;42.686;23.300;2023-10-19T07:46:15;6.57;;;5.85;;
43216;SDS011;71549;42.686;23.300;2023-10-19T07:48:16;7.03;;;6.32;;
43216;SDS011;71549;42.686;23.300;2023-10-19T07:50:17;7.32;;;6.63;;
43216;SDS011;71549;42.686;23.300;2023-10-19T07:52:18;8.27;;;6.72;;
43216;SDS011;71549;42.686;23.300;2023-10-19T07:54:19;6.90;;;6.30;;
43216;SDS011;71549;42.686;23.300;2023-10-19T07:56:20;7.03;;;6.13;;
43216;SDS011;71549;42.686;23.300;2023-10-19T07:58:21;6.63;;;6.05;;
43216;SDS011;71549;42.686;23.300;2023-10-19T08:00:21;6.90;;;6.30;;
43216;SDS011;71549;42.686;23.300;2023-10-19T08:02:25;6.53;;;5.93;;
43216;SDS011;71549;42.686;23.300;2023-10-19T08:04:26;7.00;;;6.40;;
43216;SDS011;71549;42.686;23.300;2023-10-19T08:06:29;7.50;;;6.70;;
43216;SDS011;71549;42.686;23.300;2023-10-19T08:08:32;7.30;;;6.70;;
43216;SDS011;71549;42.686;23.300;2023-10-19T08:10:35;6.97;;;6.38;;
43216;SDS011;71549;42.686;23.300;2023-10-19T08:12:38;6.70;;;6.10;;
43216;SDS011;71549;42.686;23.300;2023-10-19T08:14:41;6.47;;;5.93;;
43216;SDS011;71549;42.686;23.300;2023-10-19T08:16:42;6.28;;;5.75;;
43216;SDS011;71549;42.686;23.300;2023-10-19T08:18:43;7.22;;;6.63;;
43216;SDS011;71549;42.686;23.300;2023-10-19T08:20:44;6.35;;;5.75;;
43216;SDS011;71549;42.686;23.300;2023-10-19T08:22:45;7.65;;;6.82;;
43216;SDS011;71549;42.686;23.300;2023-10-19T08:24:46;6.40;;;5.88;;
43216;SDS011;71549;42.686;23.300;2023-10-19T08:26:47;6.55;;;5.95;;
43216;SDS011;71549;42.686;23.300;2023-10-19T08:28:47;6.93;;;6.15;;
43216;SDS011;71549;42.686;23.300;2023-10-19T08:30:48;6.85;;;6.35;;
43216;SDS011;71549;42.686;23.300;2023-10-19T08:33:01;6.65;;;6.05;;
43216;SDS011;71549;42.686;23.300;2023-10-19T08:35:02;6.85;;;6.25;;
43216;SDS011;71549;42.686;23.300;2023-10-19T08:37:04;8.63;;;6.50;;
43216;SDS011;71549;42.686;23.300;2023-10-19T08:39:09;7.10;;;6.50;;
43216;SDS011;71549;42.686;23.300;2023-10-19T08:41:15;7.10;;;6.43;;
43216;SDS011;71549;42.686;23.300;2023-10-19T08:43:18;6.63;;;5.97;;
43216;SDS011;71549;42.686;23.300;2023-10-19T08:45:19;7.40;;;6.70;;
43216;SDS011;71549;42.686;23.300;2023-10-19T08:47:22;6.70;;;6.20;;
43216;SDS011;71549;42.686;23.300;2023-10-19T08:49:25;6.88;;;6.13;;
43216;SDS011;71549;42.686;23.300;2023-10-19T08:51:29;6.10;;;5.60;;
43216;SDS011;71549;42.686;23.300;2023-10-19T08:53:30;6.85;;;6.20;;
43216;SDS011;71549;42.686;23.300;2023-10-19T08:55:31;6.70;;;5.90;;
43216;SDS011;71549;42.686;23.300;2023-10-19T08:57:34;6.20;;;5.57;;
43216;SDS011;71549;42.686;23.300;2023-10-19T08:59:36;6.40;;;5.82;;
43216;SDS011;71549;42.686;23.300;2023-10-19T09:01:38;6.40;;;5.90;;
43216;SDS011;71549;42.686;23.300;2023-10-19T09:03:38;5.97;;;5.57;;
43216;SDS011;71549;42.686;23.300;2023-10-19T09:05:40;6.45;;;5.88;;
43216;SDS011;71549;42.686;23.300;2023-10-19T09:07:41;6.50;;;5.90;;
43216;SDS011;71549;42.686;23.300;2023-10-19T09:09:42;6.50;;;5.95;;
43216;SDS011;71549;42.686;23.300;2023-10-19T09:11:44;6.30;;;5.70;;
43216;SDS011;71549;42.686;23.300;2023-10-19T09:13:53;6.20;;;5.68;;
43216;SDS011;71549;42.686;23.300;2023-10-19T09:15:53;6.30;;;5.80;;
43216;SDS011;71549;42.686;23.300;2023-10-19T09:17:55;6.40;;;5.82;;
43216;SDS011;71549;42.686;23.300;2023-10-19T09:19:55;6.65;;;6.05;;
43216;SDS011;71549;42.686;23.300;2023-10-19T09:21:56;6.20;;;5.70;;
43216;SDS011;71549;42.686;23.300;2023-10-19T09:23:59;6.65;;;6.15;;
43216;SDS011;71549;42.686;23.300;2023-10-19T09:26:00;6.40;;;5.80;;
43216;SDS011;71549;42.686;23.300;2023-10-19T09:28:06;6.60;;;6.10;;
43216;SDS011;71549;42.686;23.300;2023-10-19T09:30:07;6.22;;;5.72;;
43216;SDS011;71549;42.686;23.300;2023-10-19T09:32:10;6.70;;;6.20;;
43216;SDS011;71549;42.686;23.300;2023-10-19T09:34:13;6.10;;;5.60;;
43216;SDS011;71549;42.686;23.300;2023-10-19T09:36:14;6.10;;;5.60;;
43216;SDS011;71549;42.686;23.300;2023-10-19T09:38:15;6.35;;;5.75;;
43216;SDS011;71549;42.686;23.300;2023-10-19T09:40:22;6.20;;;5.60;;
43216;SDS011;71549;42.686;23.300;2023-10-19T09:42:23;5.82;;;5.32;;
43216;SDS011;71549;42.686;23.300;2023-10-19T09:44:27;6.45;;;5.85;;
43216;SDS011;71549;42.686;23.300;2023-10-19T09:46:32;6.43;;;5.82;;
43216;SDS011;71549;42.686;23.300;2023-10-19T09:48:40;6.50;;;5.90;;
43216;SDS011;71549;42.686;23.300;2023-10-19T09:50:43;6.20;;;5.70;;
43216;SDS011;71549;42.686;23.300;2023-10-19T09:52:51;6.03;;;5.53;;
43216;SDS011;71549;42.686;23.300;2023-10-19T09:54:54;6.05;;;5.55;;
43216;SDS011;71549;42.686;23.300;2023-10-19T09:57:03;6.32;;;5.75;;
43216;SDS011;71549;42.686;23.300;2023-10-19T10:01:41;6.63;;;6.13;;
43216;SDS011;71549;42.686;23.300;2023-10-19T10:04:03;6.03;;;5.53;;
43216;SDS011;71549;42.686;23.300;2023-10-19T10:06:10;6.32;;;5.72;;
43216;SDS011;71549;42.686;23.300;2023-10-19T10:10:17;6.05;;;5.45;;
43216;SDS011;71549;42.686;23.300;2023-10-19T10:12:24;5.93;;;5.43;;
43216;SDS011;71549;42.686;23.300;2023-10-19T10:14:27;6.45;;;5.90;;
43216;SDS011;71549;42.686;23.300;2023-10-19T10:16:34;6.82;;;6.03;;
43216;SDS011;71549;42.686;23.300;2023-10-19T10:18:34;5.88;;;5.47;;
43216;SDS011;71549;42.686;23.300;2023-10-19T10:20:35;5.70;;;5.20;;
43216;SDS011;71549;42.686;23.300;2023-10-19T10:22:36;6.47;;;5.88;;
43216;SDS011;71549;42.686;23.300;2023-10-19T10:24:43;6.28;;;5.65;;
43216;SDS011;71549;42.686;23.300;2023-10-19T10:26:58;5.80;;;5.30;;
43216;SDS011;71549;42.686;23.300;2023-10-19T10:31:13;5.70;;;5.20;;
43216;SDS011;71549;42.686;23.300;2023-10-19T10:33:37;5.82;;;5.32;;
43216;SDS011;71549;42.686;23.300;2023-10-19T10:37:45;6.65;;;6.05;;
43216;SDS011;71549;42.686;23.300;2023-10-19T10:39:56;6.30;;;5.60;;
43216;SDS011;71549;42.686;23.300;2023-10-19T10:42:00;5.40;;;4.90;;
43216;SDS011;71549;42.686;23.300;2023-10-19T10:44:03;6.13;;;5.63;;
43216;SDS011;71549;42.686;23.300;2023-10-19T10:46:04;5.47;;;5.07;;
43216;SDS011;71549;42.686;23.300;2023-10-19T10:48:12;6.65;;;6.05;;
43216;SDS011;71549;42.686;23.300;2023-10-19T10:50:18;5.97;;;5.47;;
43216;SDS011;71549;42.686;23.300;2023-10-19T10:52:29;5.88;;;5.38;;
43216;SDS011;71549;42.686;23.300;2023-10-19T10:54:34;6.32;;;5.78;;
43216;SDS011;71549;42.686;23.300;2023-10-19T10:56:39;5.88;;;5.38;;
43216;SDS011;71549;42.686;23.300;2023-10-19T10:58:41;5.63;;;5.13;;
43216;SDS011;71549;42.686;23.300;2023-10-19T11:00:45;6.10;;;5.50;;
43216;SDS011;71549;42.686;23.300;2023-10-19T11:03:01;6.10;;;5.60;;
43216;SDS011;71549;42.686;23.300;2023-10-19T11:05:14;5.88;;;5.38;;
43216;SDS011;71549;42.686;23.300;2023-10-19T11:07:18;4.97;;;4.57;;
43216;SDS011;71549;42.686;23.300;2023-10-19T11:09:21;5.72;;;5.22;;
43216;SDS011;71549;42.686;23.300;2023-10-19T11:11:23;5.47;;;4.97;;
43216;SDS011;71549;42.686;23.300;2023-10-19T11:13:24;5.35;;;4.95;;
43216;SDS011;71549;42.686;23.300;2023-10-19T11:15:28;5.97;;;5.35;;
43216;SDS011;71549;42.686;23.300;2023-10-19T11:17:29;5.53;;;5.13;;
43216;SDS011;71549;42.686;23.300;2023-10-19T11:19:39;5.72;;;5.15;;
43216;SDS011;71549;42.686;23.300;2023-10-19T11:21:51;6.03;;;5.53;;
43216;SDS011;71549;42.686;23.300;2023-10-19T11:23:53;5.75;;;5.25;;
43216;SDS011;71549;42.686;23.300;2023-10-19T11:25:57;5.50;;;5.00;;
43216;SDS011;71549;42.686;23.300;2023-10-19T11:28:00;5.40;;;5.00;;
43216;SDS011;71549;42.686;23.300;2023-10-19T11:30:03;6.13;;;5.40;;
43216;SDS011;71549;42.686;23.300;2023-10-19T11:32:14;5.65;;;5.15;;
43216;SDS011;71549;42.686;23.300;2023-10-19T11:34:14;5.45;;;5.05;;
43216;SDS011;71549;42.686;23.300;2023-10-19T11:36:20;5.63;;;5.13;;
43216;SDS011;71549;42.686;23.300;2023-10-19T11:38:22;5.40;;;5.00;;
43216;SDS011;71549;42.686;23.300;2023-10-19T11:40:23;6.00;;;5.57;;
43216;SDS011;71549;42.686;23.300;2023-10-19T11:42:25;5.38;;;4.90;;
43216;SDS011;71549;42.686;23.300;2023-10-19T11:44:25;5.25;;;4.85;;
43216;SDS011;71549;42.686;23.300;2023-10-19T11:46:27;5.10;;;4.70;;
43216;SDS011;71549;42.686;23.300;2023-10-19T11:48:31;5.25;;;4.85;;
43216;SDS011;71549;42.686;23.300;2023-10-19T11:50:35;5.00;;;4.55;;
43216;SDS011;71549;42.686;23.300;2023-10-19T11:54:37;5.47;;;4.97;;
43216;SDS011;71549;42.686;23.300;2023-10-19T11:56:38;5.70;;;5.20;;
43216;SDS011;71549;42.686;23.300;2023-10-19T11:58:39;5.05;;;4.65;;
43216;SDS011;71549;42.686;23.300;2023-10-19T12:02:47;4.47;;;4.07;;
43216;SDS011;71549;42.686;23.300;2023-10-19T12:04:48;5.45;;;5.05;;
43216;SDS011;71549;42.686;23.300;2023-10-19T12:06:48;4.78;;;4.43;;
43216;SDS011;71549;42.686;23.300;2023-10-19T12:08:49;5.10;;;4.70;;
43216;SDS011;71549;42.686;23.300;2023-10-19T12:10:50;4.82;;;4.43;;
43216;SDS011;71549;42.686;23.300;2023-10-19T12:12:52;5.07;;;4.70;;
43216;SDS011;71549;42.686;23.300;2023-10-19T12:14:53;5.10;;;4.70;;
43216;SDS011;71549;42.686;23.300;2023-10-19T12:16:54;5.40;;;4.93;;
43216;SDS011;71549;42.686;23.300;2023-10-19T12:18:55;4.93;;;4.53;;
43216;SDS011;71549;42.686;23.300;2023-10-19T12:20:57;4.95;;;4.55;;
43216;SDS011;71549;42.686;23.300;2023-10-19T12:25:05;5.40;;;4.88;;
43216;SDS011;71549;42.686;23.300;2023-10-19T12:27:06;4.78;;;4.38;;
43216;SDS011;71549;42.686;23.300;2023-10-19T12:29:08;4.78;;;4.38;;